createdAt,value
2023-08-11T00:00:14.780Z,3.63
2023-08-11T00:02:44.652Z,3.90
2023-08-11T00:05:12.962Z,3.95
2023-08-11T00:07:41.438Z,3.72
2023-08-11T00:10:10.736Z,4.18
2023-08-11T00:12:38.892Z,4.13
2023-08-11T00:15:08.909Z,4.45
2023-08-11T00:17:37.102Z,4.50
2023-08-11T00:20:08.816Z,4.38
2023-08-11T00:22:38.586Z,4.40
2023-08-11T00:25:07.475Z,4.38
2023-08-11T00:27:36.218Z,4.68
2023-08-11T00:30:06.838Z,5.13
2023-08-11T00:32:35.227Z,4.20
2023-08-11T00:35:05.414Z,3.92
2023-08-11T00:37:36.090Z,4.50
2023-08-11T00:40:05.381Z,4.60
2023-08-11T00:42:33.677Z,4.22
2023-08-11T00:45:02.453Z,4.25
2023-08-11T00:47:30.932Z,4.22
2023-08-11T00:49:59.233Z,4.47
2023-08-11T00:52:27.987Z,4.68
2023-08-11T00:54:59.136Z,4.35
2023-08-11T00:57:27.528Z,4.47
2023-08-11T00:59:57.457Z,4.80
2023-08-11T01:02:25.849Z,4.65
2023-08-11T01:04:54.385Z,4.35
2023-08-11T01:07:28.678Z,4.10
2023-08-11T01:10:08.877Z,4.07
2023-08-11T01:12:46.705Z,4.30
2023-08-11T01:15:21.644Z,4.18
2023-08-11T01:17:52.276Z,4.22
2023-08-11T01:20:21.210Z,4.50
2023-08-11T01:22:54.090Z,4.85
2023-08-11T01:25:24.425Z,4.60
2023-08-11T01:27:56.687Z,4.57
2023-08-11T01:30:25.545Z,4.93
2023-08-11T01:32:53.971Z,4.85
2023-08-11T01:35:34.274Z,4.95
2023-08-11T01:38:09.932Z,5.07
2023-08-11T01:40:40.330Z,5.10
2023-08-11T01:43:10.168Z,4.85
2023-08-11T01:45:38.439Z,4.65
2023-08-11T01:48:08.358Z,4.93
2023-08-11T01:50:38.219Z,5.00
2023-08-11T01:53:06.715Z,5.07
2023-08-11T01:55:36.639Z,5.85
2023-08-11T01:58:07.456Z,5.22
2023-08-11T02:00:35.694Z,5.60
2023-08-11T02:03:04.305Z,5.30
2023-08-11T02:05:33.036Z,5.70
2023-08-11T02:08:02.599Z,5.38
2023-08-11T02:10:30.899Z,5.57
2023-08-11T02:12:59.536Z,5.40
2023-08-11T02:15:29.665Z,5.65
2023-08-11T02:17:58.030Z,5.50
2023-08-11T02:20:26.219Z,5.63
2023-08-11T02:22:55.172Z,5.70
2023-08-11T02:25:26.000Z,5.88
2023-08-11T02:27:54.799Z,5.72
2023-08-11T02:30:24.137Z,5.80
2023-08-11T02:32:53.934Z,6.30
2023-08-11T02:35:22.684Z,6.07
2023-08-11T02:37:51.476Z,5.97
2023-08-11T02:40:21.617Z,5.85
2023-08-11T02:42:57.994Z,6.13
2023-08-11T02:45:27.663Z,6.25
2023-08-11T02:47:57.511Z,6.13
2023-08-11T02:50:25.955Z,6.57
2023-08-11T02:52:55.212Z,6.03
2023-08-11T02:55:23.789Z,6.28
2023-08-11T02:57:51.956Z,5.90
2023-08-11T03:00:21.142Z,6.10
2023-08-11T03:02:49.698Z,6.28
2023-08-11T03:05:19.381Z,6.32
2023-08-11T03:07:47.869Z,5.63
2023-08-11T03:10:18.198Z,6.18
2023-08-11T03:12:46.713Z,5.97
2023-08-11T03:15:15.149Z,6.13
2023-08-11T03:17:43.618Z,6.18
2023-08-11T03:20:14.878Z,6.28
2023-08-11T03:22:45.938Z,6.68
2023-08-11T03:25:14.682Z,6.95
2023-08-11T03:27:44.541Z,6.43
2023-08-11T03:30:14.539Z,6.97
2023-08-11T03:32:43.215Z,6.75
2023-08-11T03:35:11.685Z,7.50
2023-08-11T03:37:40.361Z,7.40
2023-08-11T03:40:14.427Z,7.05
2023-08-11T03:42:43.664Z,7.35
2023-08-11T03:45:14.254Z,7.00
2023-08-11T03:47:43.391Z,7.40
2023-08-11T03:50:13.187Z,6.63
2023-08-11T03:52:41.688Z,6.90
2023-08-11T03:55:11.831Z,6.85
2023-08-11T03:57:40.732Z,7.53
2023-08-11T04:00:12.789Z,7.38
2023-08-11T04:02:41.003Z,7.00
2023-08-11T04:05:11.383Z,7.25
2023-08-11T04:07:39.937Z,7.72
2023-08-11T04:10:12.302Z,7.57
2023-08-11T04:12:40.769Z,7.75
2023-08-11T04:15:09.541Z,7.18
2023-08-11T04:17:38.178Z,7.47
2023-08-11T04:20:14.444Z,7.55
2023-08-11T04:22:43.785Z,7.68
2023-08-11T04:25:14.461Z,7.22
2023-08-11T04:27:42.741Z,7.00
2023-08-11T04:30:12.224Z,6.78
2023-08-11T04:32:40.893Z,6.65
2023-08-11T04:35:10.007Z,6.85
2023-08-11T04:37:38.269Z,7.32
2023-08-11T04:40:10.845Z,6.55
2023-08-11T04:42:40.576Z,7.45
2023-08-11T04:45:10.085Z,6.35
2023-08-11T04:47:38.866Z,6.45
2023-08-11T04:50:09.244Z,7.05
2023-08-11T04:52:39.885Z,6.80
2023-08-11T04:55:09.030Z,6.55
2023-08-11T04:57:37.554Z,6.32
2023-08-11T05:00:15.090Z,6.85
2023-08-11T05:02:44.282Z,6.13
2023-08-11T05:05:13.570Z,6.03
2023-08-11T05:07:42.136Z,6.65
2023-08-11T05:10:11.603Z,5.80
2023-08-11T05:12:40.102Z,5.32
2023-08-11T05:15:10.578Z,5.60
2023-08-11T05:17:38.764Z,5.85
2023-08-11T05:20:09.168Z,5.18
2023-08-11T05:22:37.699Z,5.28
2023-08-11T05:25:06.973Z,5.10
2023-08-11T05:27:38.465Z,5.55
2023-08-11T05:30:09.297Z,5.22
2023-08-11T05:32:38.943Z,4.97
2023-08-11T05:35:09.506Z,4.32
2023-08-11T05:37:38.926Z,5.03
2023-08-11T05:40:09.601Z,4.70
2023-08-11T05:42:38.032Z,4.75
2023-08-11T05:45:08.965Z,5.20
2023-08-11T05:47:38.812Z,4.10
2023-08-11T05:50:08.248Z,5.03
2023-08-11T05:52:36.467Z,4.20
2023-08-11T05:55:04.926Z,3.63
2023-08-11T05:57:33.202Z,3.97
2023-08-11T06:00:01.676Z,3.95
2023-08-11T06:02:30.454Z,3.78
2023-08-11T06:04:59.976Z,3.65
2023-08-11T06:07:28.298Z,3.92
2023-08-11T06:09:56.838Z,4.15
2023-08-11T06:12:25.532Z,3.58
2023-08-11T06:14:53.721Z,3.72
2023-08-11T06:17:22.113Z,3.90
2023-08-11T06:19:50.578Z,4.32
2023-08-11T06:22:20.208Z,3.42
2023-08-11T06:24:48.546Z,3.90
2023-08-11T06:27:17.002Z,3.70
2023-08-11T06:29:45.440Z,3.97
2023-08-11T06:32:13.882Z,3.38
2023-08-11T06:34:42.184Z,4.20
2023-08-11T06:37:10.838Z,3.90
2023-08-11T06:39:42.105Z,3.40
2023-08-11T06:42:10.336Z,3.60
2023-08-11T06:44:38.891Z,4.25
2023-08-11T06:47:07.925Z,4.28
2023-08-11T06:49:36.313Z,4.00
2023-08-11T06:52:04.933Z,4.07
2023-08-11T06:54:35.245Z,3.83
2023-08-11T06:57:06.081Z,4.20
2023-08-11T06:59:34.409Z,4.20
2023-08-11T07:02:03.025Z,3.97
2023-08-11T07:04:31.445Z,3.80
2023-08-11T07:06:59.689Z,3.55
2023-08-11T07:09:28.258Z,3.50
2023-08-11T07:11:56.677Z,3.60
2023-08-11T07:14:26.985Z,3.10
2023-08-11T07:16:55.450Z,3.33
2023-08-11T07:19:23.926Z,3.00
2023-08-11T07:21:52.355Z,3.72
2023-08-11T07:24:21.054Z,3.20
2023-08-11T07:26:49.387Z,3.08
2023-08-11T07:29:17.883Z,2.85
2023-08-11T07:31:47.874Z,2.75
2023-08-11T07:34:16.103Z,3.17
2023-08-11T07:36:45.676Z,3.20
2023-08-11T07:39:22.702Z,2.80
2023-08-11T07:41:51.999Z,2.92
2023-08-11T07:44:20.509Z,3.00
2023-08-11T07:46:50.111Z,3.00
2023-08-11T07:49:18.416Z,2.90
2023-08-11T07:51:47.005Z,3.00
2023-08-11T07:54:15.652Z,3.00
2023-08-11T07:56:44.317Z,2.60
2023-08-11T07:59:12.980Z,3.05
2023-08-11T08:01:42.970Z,3.45
2023-08-11T08:04:12.959Z,3.05
2023-08-11T08:06:46.929Z,3.50
2023-08-11T08:09:16.403Z,2.97
2023-08-11T08:11:45.377Z,3.13
2023-08-11T08:14:15.078Z,2.90
2023-08-11T08:16:46.222Z,2.85
2023-08-11T08:19:18.372Z,2.70
2023-08-11T08:21:47.800Z,2.80
2023-08-11T08:24:16.811Z,2.90
2023-08-11T08:26:45.880Z,2.92
2023-08-11T08:29:14.312Z,3.20
2023-08-11T08:31:42.698Z,2.65
2023-08-11T08:34:11.238Z,2.90
2023-08-11T08:36:41.158Z,2.88
2023-08-11T08:39:09.825Z,3.10
2023-08-11T08:41:40.966Z,3.15
2023-08-11T08:44:09.188Z,2.97
2023-08-11T08:46:39.143Z,3.47
2023-08-11T08:49:14.321Z,3.13
2023-08-11T08:51:44.492Z,3.22
2023-08-11T08:54:12.841Z,3.40
2023-08-11T08:56:42.167Z,3.50
2023-08-11T08:59:10.664Z,3.33
2023-08-11T09:01:40.064Z,3.50
2023-08-11T09:04:10.751Z,3.83
2023-08-11T09:06:40.640Z,3.30
2023-08-11T09:09:11.877Z,3.38
2023-08-11T09:11:40.482Z,2.95
2023-08-11T09:14:10.137Z,3.00
2023-08-11T09:16:39.431Z,3.50
2023-08-11T09:19:10.170Z,3.55
2023-08-11T09:21:38.418Z,3.30
2023-08-11T09:24:13.180Z,3.08
2023-08-11T09:26:45.173Z,3.10
2023-08-11T09:29:13.774Z,3.67
2023-08-11T09:31:42.994Z,3.63
2023-08-11T09:34:16.367Z,3.35
2023-08-11T09:36:45.641Z,3.08
2023-08-11T09:39:15.792Z,2.80
2023-08-11T09:41:45.816Z,3.75
2023-08-11T09:44:17.136Z,3.40
2023-08-11T09:46:45.690Z,4.22
2023-08-11T09:49:14.419Z,3.80
2023-08-11T09:51:44.146Z,2.90
2023-08-11T09:54:14.713Z,3.70
2023-08-11T09:56:43.963Z,3.30
2023-08-11T09:59:14.204Z,3.30
2023-08-11T10:01:46.017Z,3.70
2023-08-11T10:04:20.784Z,3.20
2023-08-11T10:06:55.780Z,3.60
2023-08-11T10:09:27.788Z,2.97
2023-08-11T10:11:59.192Z,3.33
2023-08-11T10:14:30.403Z,3.13
2023-08-11T10:16:59.305Z,3.97
2023-08-11T10:19:28.773Z,3.50
2023-08-11T10:21:59.674Z,3.47
2023-08-11T10:24:30.853Z,3.53
2023-08-11T10:26:59.246Z,3.55
2023-08-11T10:29:27.784Z,3.58
2023-08-11T10:31:57.501Z,3.28
2023-08-11T10:34:27.054Z,3.72
2023-08-11T10:36:56.848Z,3.60
2023-08-11T10:39:27.119Z,3.72
2023-08-11T10:41:58.686Z,3.53
2023-08-11T10:44:31.748Z,3.45
2023-08-11T10:47:01.670Z,3.88
2023-08-11T10:49:35.299Z,3.50
2023-08-11T10:52:05.361Z,4.20
2023-08-11T10:54:34.175Z,3.15
2023-08-11T10:57:04.002Z,3.83
2023-08-11T10:59:34.675Z,4.15
2023-08-11T11:02:03.712Z,4.03
2023-08-11T11:04:33.718Z,4.38
2023-08-11T11:07:03.416Z,4.00
2023-08-11T11:09:32.067Z,3.78
2023-08-11T11:12:00.505Z,4.43
2023-08-11T11:14:31.222Z,4.57
2023-08-11T11:17:01.754Z,4.03
2023-08-11T11:19:30.502Z,4.10
2023-08-11T11:21:59.169Z,4.65
2023-08-11T11:24:27.718Z,4.43
2023-08-11T11:26:57.744Z,4.93
2023-08-11T11:29:29.739Z,4.25
2023-08-11T11:32:07.805Z,4.38
2023-08-11T11:34:38.750Z,4.22
2023-08-11T11:37:07.260Z,4.70
2023-08-11T11:39:35.481Z,4.50
2023-08-11T11:42:09.125Z,4.40
2023-08-11T11:44:38.027Z,5.60
2023-08-11T11:47:08.488Z,5.82
2023-08-11T11:49:37.215Z,5.78
2023-08-11T11:52:07.732Z,5.10
2023-08-11T11:54:36.474Z,5.60
2023-08-11T11:57:09.045Z,5.03
2023-08-11T11:59:38.250Z,4.65
2023-08-11T12:02:09.439Z,4.63
2023-08-11T12:04:38.624Z,4.35
2023-08-11T12:07:09.399Z,4.80
2023-08-11T12:09:51.971Z,4.80
2023-08-11T12:12:20.593Z,3.67
2023-08-11T12:14:51.988Z,3.88
2023-08-11T12:17:23.610Z,4.22
2023-08-11T12:19:52.462Z,3.67
2023-08-11T12:22:20.919Z,3.75
2023-08-11T12:24:49.210Z,4.05
2023-08-11T12:27:17.482Z,4.00
2023-08-11T12:29:46.045Z,4.07
2023-08-11T12:32:14.946Z,4.18
2023-08-11T12:34:44.626Z,3.50
2023-08-11T12:37:15.563Z,4.20
2023-08-11T12:39:44.004Z,3.70
2023-08-11T12:42:12.639Z,3.70
2023-08-11T12:44:41.662Z,3.60
2023-08-11T12:47:10.019Z,4.07
2023-08-11T12:49:38.200Z,4.13
2023-08-11T12:52:08.430Z,4.07
2023-08-11T12:54:36.948Z,3.85
2023-08-11T12:57:05.704Z,3.85
2023-08-11T12:59:35.585Z,3.63
2023-08-11T13:02:03.780Z,3.72
2023-08-11T13:04:31.983Z,3.80
2023-08-11T13:07:01.016Z,4.20
2023-08-11T13:09:30.716Z,4.00
2023-08-11T13:11:59.019Z,3.65
2023-08-11T13:14:27.538Z,4.10
2023-08-11T13:16:55.706Z,3.70
2023-08-11T13:19:23.956Z,3.72
2023-08-11T13:21:52.677Z,3.92
2023-08-11T13:24:21.532Z,3.28
2023-08-11T13:26:51.199Z,4.00
2023-08-11T13:29:19.721Z,3.92
2023-08-11T13:31:48.239Z,3.85
2023-08-11T13:34:16.442Z,3.63
2023-08-11T13:36:44.892Z,4.47
2023-08-11T13:39:13.846Z,4.00
2023-08-11T13:41:44.220Z,4.10
2023-08-11T13:44:14.465Z,4.15
2023-08-11T13:46:43.103Z,5.40
2023-08-11T13:49:11.317Z,5.15
2023-08-11T13:51:39.702Z,4.60
2023-08-11T13:54:08.318Z,4.15
2023-08-11T13:56:36.571Z,4.53
2023-08-11T13:59:05.920Z,4.30
2023-08-11T14:01:36.786Z,4.68
2023-08-11T14:04:05.496Z,4.55
2023-08-11T14:06:34.047Z,4.45
2023-08-11T14:09:02.252Z,5.05
2023-08-11T14:11:30.752Z,4.10
2023-08-11T14:17:43.237Z,4.60
2023-08-11T14:20:12.813Z,5.18
2023-08-11T14:22:41.272Z,4.93
2023-08-11T14:25:10.128Z,4.90
2023-08-11T14:27:38.376Z,4.70
2023-08-11T14:30:08.405Z,4.28
2023-08-11T14:32:37.272Z,4.70
2023-08-11T14:35:09.145Z,4.32
2023-08-11T14:37:37.439Z,4.20
2023-08-11T14:40:06.838Z,4.68
2023-08-11T14:42:35.127Z,4.38
2023-08-11T14:45:03.586Z,4.70
2023-08-11T14:47:31.998Z,4.40
2023-08-11T14:50:00.325Z,4.85
2023-08-11T14:52:29.896Z,4.72
2023-08-11T14:54:58.222Z,5.05
2023-08-11T14:57:26.602Z,5.03
2023-08-11T14:59:54.740Z,4.40
2023-08-11T15:02:23.116Z,4.90
2023-08-11T15:04:51.550Z,4.68
2023-08-11T15:07:20.022Z,4.00
2023-08-11T15:09:49.887Z,4.78
2023-08-11T15:12:18.789Z,4.45
2023-08-11T15:14:47.355Z,4.45
2023-08-11T15:17:16.132Z,5.00
2023-08-11T15:19:44.325Z,4.80
2023-08-11T15:22:12.951Z,5.20
2023-08-11T15:24:41.788Z,5.97
2023-08-11T15:27:11.383Z,5.32
2023-08-11T15:29:39.613Z,4.35
2023-08-11T15:32:08.287Z,5.35
2023-08-11T15:34:36.494Z,4.45
2023-08-11T15:37:04.686Z,4.85
2023-08-11T15:39:33.373Z,4.82
2023-08-11T15:42:01.787Z,4.97
2023-08-11T15:44:32.607Z,4.40
2023-08-11T15:47:01.093Z,5.13
2023-08-11T15:49:29.519Z,5.25
2023-08-11T15:51:58.122Z,4.60
2023-08-11T15:54:26.641Z,4.30
2023-08-11T15:56:55.151Z,5.00
2023-08-11T15:59:23.578Z,4.40
2023-08-11T16:02:08.738Z,4.75
2023-08-11T16:04:41.652Z,4.13
2023-08-11T16:07:10.127Z,4.30
2023-08-11T16:09:39.100Z,4.07
2023-08-11T16:12:07.792Z,4.22
2023-08-11T16:14:36.740Z,4.15
2023-08-11T16:17:06.478Z,4.35
2023-08-11T16:19:36.080Z,4.60
2023-08-11T16:22:04.794Z,3.90
2023-08-11T16:24:33.050Z,3.78
2023-08-11T16:27:01.264Z,4.30
2023-08-11T16:29:29.819Z,4.45
2023-08-11T16:31:58.326Z,4.25
2023-08-11T16:34:27.907Z,3.97
2023-08-11T16:36:56.319Z,4.20
2023-08-11T16:39:25.180Z,3.42
2023-08-11T16:41:53.395Z,3.63
2023-08-11T16:44:21.833Z,4.10
2023-08-11T16:46:52.795Z,4.47
2023-08-11T16:49:21.181Z,3.88
2023-08-11T16:51:50.962Z,4.03
2023-08-11T16:54:19.713Z,3.88
2023-08-11T16:56:48.139Z,3.83
2023-08-11T16:59:16.566Z,3.50
2023-08-11T17:01:44.963Z,3.72
2023-08-11T17:04:13.445Z,3.25
2023-08-11T17:06:42.246Z,3.15
2023-08-11T17:09:13.160Z,3.70
2023-08-11T17:11:41.361Z,3.38
2023-08-11T17:14:09.983Z,3.95
2023-08-11T17:16:38.266Z,3.42
2023-08-11T17:19:06.776Z,3.40
2023-08-11T17:21:35.539Z,3.13
2023-08-11T17:24:04.041Z,3.00
2023-08-11T17:26:33.667Z,3.10
2023-08-11T17:29:02.147Z,2.80
2023-08-11T17:31:30.687Z,2.72
2023-08-11T17:33:58.894Z,3.42
2023-08-11T17:36:27.954Z,3.13
2023-08-11T17:38:57.776Z,3.00
2023-08-11T17:41:26.525Z,3.35
2023-08-11T17:43:58.044Z,3.40
2023-08-11T17:46:27.078Z,3.17
2023-08-11T17:48:55.670Z,3.58
2023-08-11T17:51:24.285Z,3.05
2023-08-11T17:54:08.297Z,3.63
2023-08-11T17:56:38.737Z,3.47
2023-08-11T17:59:08.678Z,2.97
2023-08-11T18:01:37.023Z,3.83
2023-08-11T18:04:08.010Z,2.80
2023-08-11T18:06:37.433Z,3.28
2023-08-11T18:09:06.695Z,3.20
2023-08-11T18:11:36.540Z,2.95
2023-08-11T18:14:05.719Z,3.10
2023-08-11T18:16:35.758Z,3.15
2023-08-11T18:19:04.106Z,2.83
2023-08-11T18:21:32.607Z,3.33
2023-08-11T18:24:01.464Z,2.90
2023-08-11T18:26:30.862Z,2.58
2023-08-11T18:28:59.526Z,3.08
2023-08-11T18:31:28.611Z,2.67
2023-08-11T18:34:01.412Z,2.50
2023-08-11T18:36:31.151Z,3.28
2023-08-11T18:38:59.434Z,2.90
2023-08-11T18:41:27.928Z,2.83
2023-08-11T18:43:56.766Z,2.58
2023-08-11T18:46:25.130Z,2.78
2023-08-11T18:48:53.584Z,2.50
2023-08-11T18:51:23.482Z,2.53
2023-08-11T18:53:52.037Z,2.70
2023-08-11T18:56:20.558Z,3.15
2023-08-11T18:58:49.224Z,2.75
2023-08-11T19:01:17.648Z,2.78
2023-08-11T19:03:46.628Z,2.53
2023-08-11T19:06:15.560Z,3.13
2023-08-11T19:08:45.477Z,3.35
2023-08-11T19:11:17.657Z,3.05
2023-08-11T19:13:47.456Z,2.97
2023-08-11T19:16:16.000Z,3.08
2023-08-11T19:18:44.655Z,3.42
2023-08-11T19:21:13.463Z,3.03
2023-08-11T19:23:41.817Z,2.95
2023-08-11T19:26:11.536Z,3.15
2023-08-11T19:28:41.349Z,3.15
2023-08-11T19:31:09.641Z,3.58
2023-08-11T19:33:38.031Z,3.30
2023-08-11T19:36:07.300Z,3.35
2023-08-11T19:38:42.329Z,3.38
2023-08-11T19:41:12.788Z,3.38
2023-08-11T19:43:41.310Z,3.60
2023-08-11T19:46:09.720Z,3.20
2023-08-11T19:48:38.510Z,3.30
2023-08-11T19:51:07.077Z,3.33
2023-08-11T19:53:35.452Z,3.30
2023-08-11T19:56:03.872Z,3.30
2023-08-11T19:58:33.682Z,4.07
2023-08-11T20:01:02.179Z,3.53
2023-08-11T20:03:30.552Z,3.78
2023-08-11T20:05:59.323Z,3.88
2023-08-11T20:08:28.099Z,3.75
2023-08-11T20:10:56.695Z,3.70
2023-08-11T20:13:25.070Z,4.03
2023-08-11T20:16:01.343Z,4.15
2023-08-11T20:18:29.625Z,3.80
2023-08-11T20:20:58.047Z,3.70
2023-08-11T20:23:27.193Z,3.33
2023-08-11T20:25:55.691Z,3.67
2023-08-11T20:28:26.357Z,3.92
2023-08-11T20:30:54.752Z,4.15
2023-08-11T20:33:24.697Z,4.05
2023-08-11T20:35:53.040Z,3.50
2023-08-11T20:38:21.638Z,3.58
2023-08-11T20:40:50.152Z,3.30
2023-08-11T20:43:18.846Z,3.78
2023-08-11T20:45:49.344Z,3.53
2023-08-11T20:48:17.958Z,4.22
2023-08-11T20:50:51.615Z,4.10
2023-08-11T20:53:22.618Z,4.25
2023-08-11T20:55:51.264Z,4.57
2023-08-11T20:58:19.867Z,4.40
2023-08-11T21:00:48.674Z,3.90
2023-08-11T21:03:17.052Z,5.55
2023-08-11T21:05:47.161Z,5.18
2023-08-11T21:08:16.832Z,5.22
2023-08-11T21:10:46.791Z,4.88
2023-08-11T21:13:15.785Z,4.90
2023-08-11T21:15:44.577Z,5.82
2023-08-11T21:18:13.148Z,4.88
2023-08-11T21:20:41.605Z,5.38
2023-08-11T21:23:11.664Z,5.35
2023-08-11T21:25:40.025Z,5.47
2023-08-11T21:28:08.507Z,5.30
2023-08-11T21:30:37.680Z,6.00
2023-08-11T21:33:06.405Z,6.20
2023-08-11T21:35:34.740Z,6.35
2023-08-11T21:38:03.314Z,5.85
2023-08-11T21:40:34.380Z,7.10
2023-08-11T21:43:02.740Z,6.07
2023-08-11T21:45:31.254Z,6.68
2023-08-11T21:47:59.868Z,6.38
2023-08-11T21:50:28.589Z,6.95
2023-08-11T21:52:59.847Z,6.70
2023-08-11T21:55:36.683Z,6.60
2023-08-11T21:58:05.446Z,7.18
2023-08-11T22:00:36.518Z,6.97
2023-08-11T22:03:05.127Z,7.60
2023-08-11T22:05:34.428Z,7.82
2023-08-11T22:08:02.713Z,7.00
2023-08-11T22:10:31.025Z,7.47
2023-08-11T22:13:01.240Z,7.63
2023-08-11T22:15:29.583Z,6.63
2023-08-11T22:17:59.204Z,7.65
2023-08-11T22:20:28.183Z,7.22
2023-08-11T22:22:56.692Z,6.90
2023-08-11T22:25:25.293Z,7.18
2023-08-11T22:27:53.889Z,7.53
2023-08-11T22:30:23.884Z,7.80
2023-08-11T22:32:52.231Z,8.20
2023-08-11T22:35:21.069Z,7.75
2023-08-11T22:37:49.639Z,8.20
2023-08-11T22:40:18.338Z,8.57
2023-08-11T22:42:46.982Z,8.30
2023-08-11T22:45:15.733Z,9.35
2023-08-11T22:47:45.456Z,8.93
2023-08-11T22:50:14.410Z,9.57
2023-08-11T22:52:42.677Z,8.82
2023-08-11T22:55:11.365Z,9.07
2023-08-11T22:57:40.449Z,9.23
2023-08-11T23:00:13.762Z,8.68
2023-08-11T23:05:12.531Z,9.50
2023-08-11T23:07:41.522Z,9.77
2023-08-11T23:10:12.192Z,9.18
2023-08-11T23:12:40.977Z,9.75
2023-08-11T23:15:09.854Z,9.00
2023-08-11T23:17:38.282Z,10.15
2023-08-11T23:20:10.069Z,10.00
2023-08-11T23:22:39.804Z,10.73
2023-08-11T23:25:09.058Z,9.68
2023-08-11T23:27:37.289Z,9.50
2023-08-11T23:30:06.413Z,9.43
2023-08-11T23:32:35.249Z,9.38
2023-08-11T23:35:05.812Z,8.57
2023-08-11T23:37:34.841Z,8.98
2023-08-11T23:40:05.412Z,9.05
2023-08-11T23:42:33.608Z,9.60
2023-08-11T23:45:07.089Z,8.85
2023-08-11T23:47:36.404Z,9.10
2023-08-11T23:50:05.322Z,8.57
2023-08-11T23:52:35.961Z,8.75
2023-08-11T23:55:07.168Z,9.13
2023-08-11T23:57:37.273Z,8.18
